Flight Track Log - Related Links

Times and Time Zones

All times are in EDT time to prevent confusion due to time zone crossing. See the FFT403 flight status page for this flight to view local times or setup timezone preferences in your user account.

Time Position Orientation Groundspeed Altitude Reporting Facility
EDT Latitude Longitude Course Direction KTS MPH feet Rate Location/Type
Sun 07:16:25 AM 41.8000 -87.7333 270° West 150 173 1,800  Level Chicago TRACON
Sun 07:17:25 AM 41.8000 -87.8000 270° West 227 261 3,000 2,100 Climbing Chicago TRACON
Sun 07:18:25 AM 41.7833 -87.9000 257° West 273 314 6,000 3,150 Climbing Chicago TRACON
Sun 07:18:45 AM 41.7772 -87.9372 258° West 267 307 7,200 3,185 Climbing Chicago Center
Sun 07:19:46 AM 41.7739 -88.0417 268° West 283 326 10,300 2,656 Climbing Chicago Center
Sun 07:20:47 AM 41.7697 -88.1547 267° West 303 349 12,600 2,182 Climbing Chicago Center
Sun 07:21:47 AM 41.7661 -88.2803 268° West 336 387 14,700 2,132 Climbing Chicago Center
Sun 07:22:48 AM 41.7611 -88.4169 267° West 365 420 16,900 2,182 Climbing Chicago Center
Sun 07:23:48 AM 41.7558 -88.5578 267° West 380 437 19,100 2,182 Climbing Chicago Center
Sun 07:24:49 AM 41.7442 -88.7025 264° West 390 449 21,300 2,066 Climbing Chicago Center
Sun 07:25:50 AM 41.7281 -88.8517 262° West 401 461 23,300 1,587 Climbing Chicago Center
Sun 07:26:50 AM 41.7114 -89.0053 262° West 415 478 24,500 1,388 Climbing Chicago Center
Sun 07:27:51 AM 41.7031 -89.1692 266° West 439 505 26,100 1,623 Climbing Chicago Center
Sun 07:28:52 AM 41.6992 -89.3661 269° West 444 511 27,800 1,488 Climbing Chicago Center
Sun 07:29:52 AM 41.6944 -89.5325 268° West 452 520 29,100 1,636 Climbing Chicago Center
Sun 07:30:53 AM 41.6878 -89.7036 267° West 451 519 31,100 1,770 Climbing Chicago Center
Sun 07:31:54 AM 41.6825 -89.8669 268° West 444 511 32,700 1,587 Climbing Chicago Center
Sun 07:32:54 AM 41.6772 -90.0292 268° West 439 505 34,300 1,587 Climbing Chicago Center
Sun 07:33:55 AM 41.6714 -90.1858 267° West 426 490 35,900 1,525 Climbing Chicago Center
Sun 07:34:56 AM 41.6644 -90.3422 267° West 424 488 37,400 1,033 Climbing Chicago Center
Sun 07:35:57 AM 41.6575 -90.4919 266° West 414 476 38,000 298 Climbing Chicago Center
Sun 07:36:57 AM 41.6525 -90.6303 267° West 410 472 38,000  Level Chicago Center
Sun 07:37:58 AM 41.6458 -90.7906 267° West 424 488 38,000  Level Chicago Center
Sun 07:38:59 AM 41.6364 -90.9864 266° West 440 506 38,000  Level Chicago Center
Sun 07:40:00 AM 41.6294 -91.1447 267° West 434 499 38,000  Level Chicago Center
Sun 07:41:00 AM 41.6214 -91.3075 266° West 439 505 38,000  Level Chicago Center
Sun 07:42:01 AM 41.6136 -91.4661 266° West 432 497 38,000  Level Chicago Center
Sun 07:43:02 AM 41.6058 -91.6253 266° West 432 497 38,000  Level Chicago Center
Sun 07:44:03 AM 41.5964 -91.7836 265° West 430 495 38,000  Level Chicago Center
Sun 07:45:04 AM 41.5886 -91.9417 266° West 429 494 38,000  Level Chicago Center
Sun 07:46:04 AM 41.5803 -92.1000 266° West 430 495 38,000  Level Chicago Center
Sun 07:47:05 AM 41.5703 -92.2567 265° West 426 490 38,000  Level Chicago Center
Sun 07:48:06 AM 41.5617 -92.4158 266° West 432 497 38,000  Level Chicago Center
Sun 07:49:07 AM 41.5528 -92.5733 266° West 431 496 38,000  Level Chicago Center
Sun 07:50:08 AM 41.5433 -92.7311 265° West 429 494 38,000  Level Chicago Center
Sun 07:51:09 AM 41.5328 -92.8933 265° West 428 493 38,000  Level Chicago Center
Sun 07:52:12 AM 41.5208 -93.0839 265° West 430 495 38,000  Level Minneapolis Center
Sun 07:53:12 AM 41.5103 -93.2411 265° West 430 495 38,000  Level Minneapolis Center
Sun 07:54:13 AM 41.5003 -93.3981 265° West 429 494 38,000  Level Minneapolis Center
Sun 07:55:13 AM 41.4903 -93.5542 265° West 428 493 38,000  Level Minneapolis Center
Sun 07:56:14 AM 41.4811 -93.7092 266° West 425 489 38,000  Level Minneapolis Center
Sun 07:57:14 AM 41.4692 -93.8683 264° West 432 497 38,000  Level Minneapolis Center
Sun 07:58:15 AM 41.4575 -94.0258 264° West 432 497 38,000  Level Minneapolis Center
Sun 07:59:15 AM 41.4472 -94.1822 265° West 432 497 38,000  Level Minneapolis Center
Sun 08:00:16 AM 41.4350 -94.3389 264° West 429 494 38,000 -50 Level Minneapolis Center
Sun 08:01:16 AM 41.4197 -94.4919 262° West 423 487 37,900  Descending Minneapolis Center
Sun 08:02:17 AM 41.4083 -94.6467 264° West 420 483 38,000 50 Climbing Minneapolis Center
Sun 08:03:17 AM 41.3958 -94.8300 265° West 416 479 38,000  Level Minneapolis Center
Sun 08:04:18 AM 41.3850 -94.9858 265° West 420 483 38,000  Level Minneapolis Center
Sun 08:05:18 AM 41.3722 -95.1422 264° West 424 488 38,000  Level Minneapolis Center
Sun 08:06:19 AM 41.3578 -95.2989 263° West 427 491 38,000  Level Minneapolis Center
Sun 08:07:19 AM 41.3450 -95.4544 264° West 424 488 38,000  Level Minneapolis Center
Sun 08:08:20 AM 41.3303 -95.6117 263° West 426 490 38,000  Level Minneapolis Center
Sun 08:09:20 AM 41.3200 -95.7550 265° West 426 490 38,000  Level Minneapolis Center
Sun 08:10:21 AM 41.3056 -95.9111 263° West 425 489 38,000  Level Minneapolis Center
Sun 08:11:22 AM 41.2911 -96.0681 263° West 426 490 38,000  Level Minneapolis Center
Sun 08:12:22 AM 41.2769 -96.2269 263° West 430 495 38,000 50 Level Minneapolis Center
Sun 08:13:23 AM 41.2631 -96.3794 263° West 431 496 38,100  Climbing Minneapolis Center
Sun 08:14:24 AM 41.2481 -96.5367 263° West 429 494 38,000 -50 Descending Minneapolis Center
Sun 08:15:24 AM 41.2292 -96.7233 262° West 427 491 38,000  Level Minneapolis Center
Sun 08:16:25 AM 41.2147 -96.8772 263° West 422 486 38,000  Level Minneapolis Center
Sun 08:17:26 AM 41.1997 -97.0322 263° West 424 488 38,000  Level Minneapolis Center
Sun 08:18:27 AM 41.1833 -97.1861 262° West 422 486 38,000  Level Minneapolis Center
Sun 08:19:27 AM 41.1683 -97.3408 263° West 422 486 38,000  Level Minneapolis Center
Sun 08:20:28 AM 41.1519 -97.5022 262° West 424 488 38,000  Level Minneapolis Center
Sun 08:21:29 AM 41.1356 -97.6575 262° West 425 489 38,000  Level Minneapolis Center
Sun 08:22:30 AM 41.1189 -97.8114 262° West 423 487 38,000  Level Minneapolis Center
Sun 08:23:30 AM 41.1036 -97.9678 263° West 425 489 38,000  Level Minneapolis Center
Sun 08:24:31 AM 41.0856 -98.1208 261° West 422 486 38,000  Level Minneapolis Center
Sun 08:25:32 AM 41.0694 -98.2747 262° West 421 484 38,000  Level Minneapolis Center
Sun 08:26:33 AM 41.0531 -98.4303 262° West 423 487 38,000  Level Minneapolis Center
Sun 08:27:34 AM 41.0364 -98.5742 261° West 421 484 38,000  Level Minneapolis Center
Sun 08:28:34 AM 41.0194 -98.7289 262° West 423 487 38,000  Level Minneapolis Center
Sun 08:29:35 AM 41.0008 -98.8842 261° West 427 491 38,000  Level Minneapolis Center
Sun 08:30:36 AM 40.9844 -99.0394 262° West 426 490 38,000  Level Minneapolis Center
Sun 08:31:35 AM 40.9639 -99.2144 261° West 424 488 38,000  Level Denver Center
Sun 08:32:35 AM 40.9464 -99.3686 262° West 423 487 38,000  Level Denver Center
Sun 08:33:35 AM 40.9283 -99.5231 261° West 424 488 38,000  Level Denver Center
Sun 08:34:36 AM 40.9092 -99.6789 261° West 427 491 38,000  Level Denver Center
Sun 08:35:36 AM 40.8903 -99.8356 261° West 430 495 38,000  Level Denver Center
Sun 08:36:37 AM 40.8714 -99.9839 260° West 429 494 38,000  Level Denver Center
Sun 08:37:37 AM 40.8531 -100.1336 261° West 430 495 38,000  Level Denver Center
Sun 08:38:38 AM 40.8311 -100.3081 261° West 431 496 38,000  Level Denver Center
Sun 08:39:38 AM 40.8125 -100.4572 261° West 430 495 38,000  Level Denver Center
Sun 08:40:39 AM 40.7936 -100.6061 261° West 428 493 38,000  Level Denver Center
Sun 08:41:39 AM 40.7672 -100.7697 258° West 432 497 38,000  Level Denver Center
Sun 08:42:39 AM 40.7442 -100.9136 258° West 436 502 38,000  Level Denver Center
Sun 08:43:40 AM 40.7153 -101.0875 258° West 435 501 38,000  Level Denver Center
Sun 08:44:40 AM 40.6897 -101.2350 257° West 432 497 38,000  Level Denver Center
Sun 08:45:41 AM 40.6636 -101.3808 257° West 428 493 38,000  Level Denver Center
Sun 08:46:41 AM 40.6328 -101.5542 257° West 435 501 38,000  Level Denver Center
Sun 08:47:42 AM 40.6064 -101.7022 257° West 435 501 38,000  Level Denver Center
Sun 08:48:42 AM 40.5789 -101.8497 256° West 435 501 38,000  Level Denver Center
Sun 08:49:43 AM 40.5525 -101.9989 257° West 438 504 38,000  Level Denver Center
Sun 08:50:43 AM 40.5200 -102.1736 256° West 441 507 38,000  Level Denver Center
Sun 08:51:44 AM 40.4925 -102.3242 257° West 442 509 38,000  Level Denver Center
Sun 08:52:44 AM 40.4656 -102.4742 257° West 440 506 38,000 -450 Level Denver Center
Sun 08:53:44 AM 40.4314 -102.6469 255° West 439 505 37,100 -1,488 Descending Denver Center
Sun 08:54:45 AM 40.4058 -102.7906 257° West 433 498 35,000 -2,281 Descending Denver Center
Sun 08:55:45 AM 40.3772 -102.9417 256° West 426 490 32,500 -2,479 Descending Denver Center
Sun 08:56:46 AM 40.3483 -103.0925 256° West 424 488 30,000 -2,529 Descending Denver Center
Sun 08:57:46 AM 40.3189 -103.2406 255° West 417 480 27,400 -2,529 Descending Denver Center
Sun 08:58:47 AM 40.2914 -103.3836 256° West 405 466 24,900 -2,281 Descending Denver Center
Sun 08:59:47 AM 40.2667 -103.5197 257° West 384 442 22,800 -1,934 Descending Denver Center
Sun 09:00:48 AM 40.2400 -103.6478 255° West 364 419 21,000 -1,686 Descending Denver Center
Sun 09:01:48 AM 40.2167 -103.7719 256° West 358 412 19,400 -1,650 Descending Denver Center
Sun 09:02:48 AM 40.2031 -103.8939 262° West 319 367 17,700 -1,488 Descending Denver Center
Sun 09:03:49 AM 40.2150 -104.0044 278° West 306 352 16,400 -1,388 Descending Denver Center
Sun 09:04:49 AM 40.2258 -104.1117 278° West 298 343 14,900 -1,488 Descending Denver Center
Sun 09:05:50 AM 40.2342 -104.2147 276° West 287 330 13,400 -1,388 Descending Denver Center
Sun 09:06:50 AM 40.2439 -104.3189 277° West 288 331 12,100 -1,140 Descending Denver Center
Sun 09:07:51 AM 40.2222 -104.4197 254° West 290 334 11,100 -992 Descending Denver Center
Sun 09:08:51 AM 40.1906 -104.5183 247° West 294 338 10,100 -843 Descending Denver Center
Sun 09:09:52 AM 40.1394 -104.5847 225° Southwest 271 312 9,400 -833 Descending Denver Center
Sun 09:10:39 AM 40.0833 -104.6167 204° Southwest 246 283 8,600 -772 Descending Denver TRACON
Sun 09:11:33 AM 40.0333 -104.6500 207° Southwest 218 251 8,100 -575 Descending Denver TRACON
Sun 09:11:52 AM 40.0231 -104.6567 206° Southwest 220 253 7,900 -1,050 Descending Denver Center
Sun 09:12:53 AM 39.9717 -104.6836 202° Southwest 182 209 6,700 -942 Descending Denver Center
Sun 09:13:53 AM 39.9278 -104.6867 183° South 160 184 6,000 -694 Descending Denver Center
Sun 09:14:54 AM 39.8928 -104.6872 181° South 139 160 5,300 -689 Descending Denver Center
Sun 09:16:00 AM 39.8617 -104.6732 190° South  Level Estimated
Sun 09:23:00 AM 39.8617 -104.6732 190° South  Level Estimated
Sun 09:24:00 AM 39.8617 -104.6732 190° South  Level Estimated
Sun 09:25:00 AM 39.8617 -104.6732 190° South  Level Estimated

Login

Don't have an account? Register now (free) for customized features, flight alerts, and more!